sensor_id;sensor_type;location;lat;lon;timestamp;P1;durP1;ratioP1;P2;durP2;ratioP2
23282;SDS011;11810;51.178;3.878;2022-12-24T00:02:17;49.00;;;8.70;;
23282;SDS011;11810;51.178;3.878;2022-12-24T00:04:43;63.92;;;10.18;;
23282;SDS011;11810;51.178;3.878;2022-12-24T00:07:09;54.47;;;10.48;;
23282;SDS011;11810;51.178;3.878;2022-12-24T00:09:35;56.75;;;10.02;;
23282;SDS011;11810;51.178;3.878;2022-12-24T00:12:01;47.05;;;8.57;;
23282;SDS011;11810;51.178;3.878;2022-12-24T00:14:27;55.58;;;9.27;;
23282;SDS011;11810;51.178;3.878;2022-12-24T00:16:53;49.13;;;8.80;;
23282;SDS011;11810;51.178;3.878;2022-12-24T00:19:19;54.92;;;10.20;;
23282;SDS011;11810;51.178;3.878;2022-12-24T00:21:45;59.67;;;9.38;;
23282;SDS011;11810;51.178;3.878;2022-12-24T00:24:10;53.35;;;8.60;;
23282;SDS011;11810;51.178;3.878;2022-12-24T00:26:36;45.83;;;9.20;;
23282;SDS011;11810;51.178;3.878;2022-12-24T00:29:02;64.00;;;10.15;;
23282;SDS011;11810;51.178;3.878;2022-12-24T00:31:28;50.33;;;9.68;;
23282;SDS011;11810;51.178;3.878;2022-12-24T00:33:54;63.33;;;9.90;;
23282;SDS011;11810;51.178;3.878;2022-12-24T00:36:20;49.60;;;8.05;;
23282;SDS011;11810;51.178;3.878;2022-12-24T00:38:46;43.03;;;9.30;;
23282;SDS011;11810;51.178;3.878;2022-12-24T00:41:13;56.25;;;9.10;;
23282;SDS011;11810;51.178;3.878;2022-12-24T00:43:56;46.47;;;9.10;;
23282;SDS011;11810;51.178;3.878;2022-12-24T00:46:23;57.42;;;10.48;;
23282;SDS011;11810;51.178;3.878;2022-12-24T00:48:50;50.08;;;9.35;;
23282;SDS011;11810;51.178;3.878;2022-12-24T00:51:17;57.22;;;9.23;;
23282;SDS011;11810;51.178;3.878;2022-12-24T00:53:43;44.47;;;7.93;;
23282;SDS011;11810;51.178;3.878;2022-12-24T00:56:09;45.60;;;8.93;;
23282;SDS011;11810;51.178;3.878;2022-12-24T00:58:35;58.67;;;9.52;;
23282;SDS011;11810;51.178;3.878;2022-12-24T01:01:01;33.00;;;7.45;;
23282;SDS011;11810;51.178;3.878;2022-12-24T01:03:27;49.72;;;8.40;;
23282;SDS011;11810;51.178;3.878;2022-12-24T01:06:03;31.70;;;6.57;;
23282;SDS011;11810;51.178;3.878;2022-12-24T01:08:34;44.95;;;7.88;;
23282;SDS011;11810;51.178;3.878;2022-12-24T01:11:01;41.00;;;7.28;;
23282;SDS011;11810;51.178;3.878;2022-12-24T01:13:28;38.70;;;7.72;;
23282;SDS011;11810;51.178;3.878;2022-12-24T01:15:54;37.50;;;6.50;;
23282;SDS011;11810;51.178;3.878;2022-12-24T01:18:20;33.03;;;5.82;;
23282;SDS011;11810;51.178;3.878;2022-12-24T01:20:54;40.22;;;7.35;;
23282;SDS011;11810;51.178;3.878;2022-12-24T01:23:24;35.80;;;7.97;;
23282;SDS011;11810;51.178;3.878;2022-12-24T01:25:50;35.72;;;7.47;;
23282;SDS011;11810;51.178;3.878;2022-12-24T01:28:16;36.40;;;6.93;;
23282;SDS011;11810;51.178;3.878;2022-12-24T01:30:43;27.75;;;5.65;;
23282;SDS011;11810;51.178;3.878;2022-12-24T01:33:09;37.28;;;5.65;;
23282;SDS011;11810;51.178;3.878;2022-12-24T01:35:37;34.08;;;7.45;;
23282;SDS011;11810;51.178;3.878;2022-12-24T01:38:07;34.03;;;6.68;;
23282;SDS011;11810;51.178;3.878;2022-12-24T01:40:33;31.95;;;6.93;;
23282;SDS011;11810;51.178;3.878;2022-12-24T01:45:49;37.13;;;6.45;;
23282;SDS011;11810;51.178;3.878;2022-12-24T01:48:38;23.08;;;5.72;;
23282;SDS011;11810;51.178;3.878;2022-12-24T01:51:11;25.63;;;5.45;;
23282;SDS011;11810;51.178;3.878;2022-12-24T01:53:48;30.05;;;4.45;;
23282;SDS011;11810;51.178;3.878;2022-12-24T01:56:19;36.40;;;6.00;;
23282;SDS011;11810;51.178;3.878;2022-12-24T01:58:46;32.58;;;6.43;;
23282;SDS011;11810;51.178;3.878;2022-12-24T02:01:17;29.63;;;6.03;;
23282;SDS011;11810;51.178;3.878;2022-12-24T02:03:42;42.15;;;5.95;;
23282;SDS011;11810;51.178;3.878;2022-12-24T02:06:09;34.13;;;6.13;;
23282;SDS011;11810;51.178;3.878;2022-12-24T02:08:39;40.58;;;6.28;;
23282;SDS011;11810;51.178;3.878;2022-12-24T02:11:12;37.38;;;6.15;;
23282;SDS011;11810;51.178;3.878;2022-12-24T02:13:49;37.15;;;7.00;;
23282;SDS011;11810;51.178;3.878;2022-12-24T02:21:54;49.20;;;9.10;;
23282;SDS011;11810;51.178;3.878;2022-12-24T02:29:59;43.88;;;8.38;;
23282;SDS011;11810;51.178;3.878;2022-12-24T02:32:38;59.38;;;8.38;;
23282;SDS011;11810;51.178;3.878;2022-12-24T02:35:36;47.42;;;8.57;;
23282;SDS011;11810;51.178;3.878;2022-12-24T02:40:39;55.03;;;9.15;;
23282;SDS011;11810;51.178;3.878;2022-12-24T02:43:14;47.88;;;7.50;;
23282;SDS011;11810;51.178;3.878;2022-12-24T02:45:47;57.95;;;8.48;;
23282;SDS011;11810;51.178;3.878;2022-12-24T02:48:18;44.30;;;7.63;;
23282;SDS011;11810;51.178;3.878;2022-12-24T02:50:56;37.08;;;9.05;;
23282;SDS011;11810;51.178;3.878;2022-12-24T02:53:27;39.40;;;8.02;;
23282;SDS011;11810;51.178;3.878;2022-12-24T02:59:07;45.78;;;7.85;;
23282;SDS011;11810;51.178;3.878;2022-12-24T03:04:06;47.97;;;8.50;;
23282;SDS011;11810;51.178;3.878;2022-12-24T03:12:32;31.33;;;6.47;;
23282;SDS011;11810;51.178;3.878;2022-12-24T03:15:04;36.35;;;6.20;;
23282;SDS011;11810;51.178;3.878;2022-12-24T03:17:33;37.58;;;6.90;;
23282;SDS011;11810;51.178;3.878;2022-12-24T03:20:03;37.08;;;6.05;;
23282;SDS011;11810;51.178;3.878;2022-12-24T03:22:31;34.28;;;5.80;;
23282;SDS011;11810;51.178;3.878;2022-12-24T03:24:59;33.78;;;6.50;;
23282;SDS011;11810;51.178;3.878;2022-12-24T03:27:26;40.15;;;7.15;;
23282;SDS011;11810;51.178;3.878;2022-12-24T03:29:54;28.65;;;6.47;;
23282;SDS011;11810;51.178;3.878;2022-12-24T03:32:29;36.35;;;6.72;;
23282;SDS011;11810;51.178;3.878;2022-12-24T03:34:56;35.17;;;7.57;;
23282;SDS011;11810;51.178;3.878;2022-12-24T03:37:22;39.95;;;6.30;;
23282;SDS011;11810;51.178;3.878;2022-12-24T03:39:49;37.03;;;7.63;;
23282;SDS011;11810;51.178;3.878;2022-12-24T03:42:15;35.70;;;6.82;;
23282;SDS011;11810;51.178;3.878;2022-12-24T03:44:41;41.20;;;6.93;;
23282;SDS011;11810;51.178;3.878;2022-12-24T03:47:07;35.85;;;6.78;;
23282;SDS011;11810;51.178;3.878;2022-12-24T03:49:32;39.88;;;7.53;;
23282;SDS011;11810;51.178;3.878;2022-12-24T03:51:58;24.85;;;5.75;;
23282;SDS011;11810;51.178;3.878;2022-12-24T03:54:24;41.50;;;6.50;;
23282;SDS011;11810;51.178;3.878;2022-12-24T03:56:50;29.65;;;5.95;;
23282;SDS011;11810;51.178;3.878;2022-12-24T03:59:16;38.20;;;7.22;;
23282;SDS011;11810;51.178;3.878;2022-12-24T04:01:42;37.63;;;6.15;;
23282;SDS011;11810;51.178;3.878;2022-12-24T04:04:07;49.80;;;8.10;;
23282;SDS011;11810;51.178;3.878;2022-12-24T04:06:33;38.97;;;6.50;;
23282;SDS011;11810;51.178;3.878;2022-12-24T04:08:59;50.17;;;7.68;;
23282;SDS011;11810;51.178;3.878;2022-12-24T04:11:28;39.50;;;6.75;;
23282;SDS011;11810;51.178;3.878;2022-12-24T04:13:55;47.35;;;7.00;;
23282;SDS011;11810;51.178;3.878;2022-12-24T04:16:21;48.55;;;8.05;;
23282;SDS011;11810;51.178;3.878;2022-12-24T04:18:47;42.95;;;7.88;;
23282;SDS011;11810;51.178;3.878;2022-12-24T04:21:13;55.53;;;7.30;;
23282;SDS011;11810;51.178;3.878;2022-12-24T04:23:40;44.75;;;8.27;;
23282;SDS011;11810;51.178;3.878;2022-12-24T04:26:08;47.63;;;7.18;;
23282;SDS011;11810;51.178;3.878;2022-12-24T04:28:35;44.63;;;7.07;;
23282;SDS011;11810;51.178;3.878;2022-12-24T04:31:02;50.47;;;7.47;;
23282;SDS011;11810;51.178;3.878;2022-12-24T04:33:30;40.95;;;6.72;;
23282;SDS011;11810;51.178;3.878;2022-12-24T04:35:57;58.60;;;8.85;;
23282;SDS011;11810;51.178;3.878;2022-12-24T04:38:24;46.97;;;7.65;;
23282;SDS011;11810;51.178;3.878;2022-12-24T04:41:00;48.20;;;8.13;;
23282;SDS011;11810;51.178;3.878;2022-12-24T04:43:27;39.47;;;7.07;;
23282;SDS011;11810;51.178;3.878;2022-12-24T04:45:54;46.83;;;7.40;;
23282;SDS011;11810;51.178;3.878;2022-12-24T04:48:20;48.08;;;7.88;;
23282;SDS011;11810;51.178;3.878;2022-12-24T04:50:46;45.67;;;7.07;;
23282;SDS011;11810;51.178;3.878;2022-12-24T04:53:12;52.00;;;7.35;;
23282;SDS011;11810;51.178;3.878;2022-12-24T04:55:48;40.25;;;6.78;;
23282;SDS011;11810;51.178;3.878;2022-12-24T04:58:13;55.30;;;8.13;;
23282;SDS011;11810;51.178;3.878;2022-12-24T05:00:40;47.13;;;8.00;;
23282;SDS011;11810;51.178;3.878;2022-12-24T05:03:05;46.67;;;7.55;;
23282;SDS011;11810;51.178;3.878;2022-12-24T05:05:31;61.53;;;8.95;;
23282;SDS011;11810;51.178;3.878;2022-12-24T05:07:57;58.42;;;8.52;;
23282;SDS011;11810;51.178;3.878;2022-12-24T05:10:23;46.30;;;8.10;;
23282;SDS011;11810;51.178;3.878;2022-12-24T05:12:49;64.55;;;8.30;;
23282;SDS011;11810;51.178;3.878;2022-12-24T05:15:15;41.38;;;8.30;;
23282;SDS011;11810;51.178;3.878;2022-12-24T05:17:40;63.22;;;9.48;;
23282;SDS011;11810;51.178;3.878;2022-12-24T05:20:06;44.65;;;7.65;;
23282;SDS011;11810;51.178;3.878;2022-12-24T05:22:32;48.03;;;8.15;;
23282;SDS011;11810;51.178;3.878;2022-12-24T05:25:16;46.88;;;8.05;;
23282;SDS011;11810;51.178;3.878;2022-12-24T05:28:00;46.10;;;8.50;;
23282;SDS011;11810;51.178;3.878;2022-12-24T05:30:26;53.70;;;8.63;;
23282;SDS011;11810;51.178;3.878;2022-12-24T05:32:52;52.83;;;9.07;;
23282;SDS011;11810;51.178;3.878;2022-12-24T05:35:18;54.08;;;8.77;;
23282;SDS011;11810;51.178;3.878;2022-12-24T05:37:43;43.78;;;7.85;;
23282;SDS011;11810;51.178;3.878;2022-12-24T05:40:09;43.92;;;7.68;;
23282;SDS011;11810;51.178;3.878;2022-12-24T05:42:35;47.10;;;8.52;;
23282;SDS011;11810;51.178;3.878;2022-12-24T05:45:01;46.78;;;8.30;;
23282;SDS011;11810;51.178;3.878;2022-12-24T05:47:26;51.08;;;7.63;;
23282;SDS011;11810;51.178;3.878;2022-12-24T05:49:52;48.47;;;8.02;;
23282;SDS011;11810;51.178;3.878;2022-12-24T05:52:18;66.78;;;8.52;;
23282;SDS011;11810;51.178;3.878;2022-12-24T05:54:44;51.15;;;7.90;;
23282;SDS011;11810;51.178;3.878;2022-12-24T05:57:10;55.45;;;8.02;;
23282;SDS011;11810;51.178;3.878;2022-12-24T05:59:35;44.22;;;8.65;;
23282;SDS011;11810;51.178;3.878;2022-12-24T06:02:01;57.65;;;8.07;;
23282;SDS011;11810;51.178;3.878;2022-12-24T06:04:27;42.05;;;7.25;;
23282;SDS011;11810;51.178;3.878;2022-12-24T06:06:52;54.03;;;8.35;;
23282;SDS011;11810;51.178;3.878;2022-12-24T06:09:18;49.90;;;8.13;;
23282;SDS011;11810;51.178;3.878;2022-12-24T06:11:43;48.85;;;7.45;;
23282;SDS011;11810;51.178;3.878;2022-12-24T06:14:09;63.65;;;10.15;;
23282;SDS011;11810;51.178;3.878;2022-12-24T06:16:35;51.35;;;8.48;;
23282;SDS011;11810;51.178;3.878;2022-12-24T06:19:01;48.58;;;7.78;;
23282;SDS011;11810;51.178;3.878;2022-12-24T06:21:27;60.72;;;8.15;;
23282;SDS011;11810;51.178;3.878;2022-12-24T06:23:52;44.20;;;8.50;;
23282;SDS011;11810;51.178;3.878;2022-12-24T06:26:19;54.95;;;8.18;;
23282;SDS011;11810;51.178;3.878;2022-12-24T06:28:46;39.72;;;6.40;;
23282;SDS011;11810;51.178;3.878;2022-12-24T06:31:13;43.25;;;8.77;;
23282;SDS011;11810;51.178;3.878;2022-12-24T06:33:42;55.58;;;7.85;;
23282;SDS011;11810;51.178;3.878;2022-12-24T06:36:09;47.50;;;7.75;;
23282;SDS011;11810;51.178;3.878;2022-12-24T06:38:38;52.97;;;7.88;;
23282;SDS011;11810;51.178;3.878;2022-12-24T06:41:05;41.50;;;6.88;;
23282;SDS011;11810;51.178;3.878;2022-12-24T06:43:32;50.15;;;8.43;;
23282;SDS011;11810;51.178;3.878;2022-12-24T06:46:02;55.20;;;7.53;;
23282;SDS011;11810;51.178;3.878;2022-12-24T06:48:28;53.97;;;8.23;;
23282;SDS011;11810;51.178;3.878;2022-12-24T06:50:54;55.75;;;8.15;;
23282;SDS011;11810;51.178;3.878;2022-12-24T06:53:20;46.33;;;7.78;;
23282;SDS011;11810;51.178;3.878;2022-12-24T06:55:47;49.85;;;7.88;;
23282;SDS011;11810;51.178;3.878;2022-12-24T06:58:12;53.63;;;8.48;;
23282;SDS011;11810;51.178;3.878;2022-12-24T07:00:38;54.58;;;7.35;;
23282;SDS011;11810;51.178;3.878;2022-12-24T07:03:04;57.88;;;8.35;;
23282;SDS011;11810;51.178;3.878;2022-12-24T07:05:29;56.95;;;7.60;;
23282;SDS011;11810;51.178;3.878;2022-12-24T07:07:55;58.90;;;8.70;;
23282;SDS011;11810;51.178;3.878;2022-12-24T07:10:21;54.92;;;8.23;;
23282;SDS011;11810;51.178;3.878;2022-12-24T07:12:47;56.08;;;8.60;;
23282;SDS011;11810;51.178;3.878;2022-12-24T07:15:13;54.95;;;9.80;;
23282;SDS011;11810;51.178;3.878;2022-12-24T07:17:40;60.03;;;8.23;;
23282;SDS011;11810;51.178;3.878;2022-12-24T07:20:06;53.35;;;7.47;;
23282;SDS011;11810;51.178;3.878;2022-12-24T07:22:34;58.92;;;7.97;;
23282;SDS011;11810;51.178;3.878;2022-12-24T07:25:00;55.75;;;8.57;;
23282;SDS011;11810;51.178;3.878;2022-12-24T07:27:25;55.92;;;8.82;;
23282;SDS011;11810;51.178;3.878;2022-12-24T07:29:51;50.45;;;7.45;;
23282;SDS011;11810;51.178;3.878;2022-12-24T07:32:17;56.38;;;9.43;;
23282;SDS011;11810;51.178;3.878;2022-12-24T07:34:44;47.80;;;7.95;;
23282;SDS011;11810;51.178;3.878;2022-12-24T07:37:10;64.13;;;10.13;;
23282;SDS011;11810;51.178;3.878;2022-12-24T07:40:49;57.92;;;9.65;;
23282;SDS011;11810;51.178;3.878;2022-12-24T07:43:15;52.60;;;7.05;;
23282;SDS011;11810;51.178;3.878;2022-12-24T07:45:41;49.63;;;8.15;;
23282;SDS011;11810;51.178;3.878;2022-12-24T07:48:07;57.28;;;9.48;;
23282;SDS011;11810;51.178;3.878;2022-12-24T07:50:33;50.67;;;9.23;;
23282;SDS011;11810;51.178;3.878;2022-12-24T07:52:59;51.35;;;8.75;;
23282;SDS011;11810;51.178;3.878;2022-12-24T07:55:25;54.17;;;9.18;;
23282;SDS011;11810;51.178;3.878;2022-12-24T07:57:50;52.83;;;7.90;;
23282;SDS011;11810;51.178;3.878;2022-12-24T08:00:16;49.85;;;7.50;;
23282;SDS011;11810;51.178;3.878;2022-12-24T08:02:42;41.70;;;7.32;;
23282;SDS011;11810;51.178;3.878;2022-12-24T08:05:08;46.65;;;8.43;;
23282;SDS011;11810;51.178;3.878;2022-12-24T08:07:34;48.75;;;8.15;;
23282;SDS011;11810;51.178;3.878;2022-12-24T08:10:00;53.38;;;8.57;;
23282;SDS011;11810;51.178;3.878;2022-12-24T08:12:26;52.78;;;8.55;;
23282;SDS011;11810;51.178;3.878;2022-12-24T08:14:52;59.28;;;8.35;;
23282;SDS011;11810;51.178;3.878;2022-12-24T08:17:18;39.53;;;7.22;;
23282;SDS011;11810;51.178;3.878;2022-12-24T08:19:43;47.22;;;7.07;;
23282;SDS011;11810;51.178;3.878;2022-12-24T08:22:09;46.55;;;8.85;;
23282;SDS011;11810;51.178;3.878;2022-12-24T08:24:35;54.92;;;9.98;;
23282;SDS011;11810;51.178;3.878;2022-12-24T08:27:01;55.95;;;8.57;;
23282;SDS011;11810;51.178;3.878;2022-12-24T08:29:28;44.97;;;8.65;;
23282;SDS011;11810;51.178;3.878;2022-12-24T08:31:54;46.20;;;8.32;;
23282;SDS011;11810;51.178;3.878;2022-12-24T08:34:19;52.40;;;9.75;;
23282;SDS011;11810;51.178;3.878;2022-12-24T08:36:45;49.13;;;9.60;;
23282;SDS011;11810;51.178;3.878;2022-12-24T08:39:11;52.45;;;8.93;;
23282;SDS011;11810;51.178;3.878;2022-12-24T08:41:37;52.70;;;10.18;;
23282;SDS011;11810;51.178;3.878;2022-12-24T08:44:03;49.63;;;8.93;;
23282;SDS011;11810;51.178;3.878;2022-12-24T08:46:29;48.38;;;9.23;;
23282;SDS011;11810;51.178;3.878;2022-12-24T08:48:55;46.05;;;8.35;;
23282;SDS011;11810;51.178;3.878;2022-12-24T08:51:21;39.20;;;6.57;;
23282;SDS011;11810;51.178;3.878;2022-12-24T08:53:47;43.08;;;8.70;;
23282;SDS011;11810;51.178;3.878;2022-12-24T08:56:13;46.38;;;8.85;;
23282;SDS011;11810;51.178;3.878;2022-12-24T08:58:39;50.45;;;8.40;;
23282;SDS011;11810;51.178;3.878;2022-12-24T09:01:12;52.95;;;10.70;;
23282;SDS011;11810;51.178;3.878;2022-12-24T09:03:40;55.13;;;9.07;;
23282;SDS011;11810;51.178;3.878;2022-12-24T09:06:06;50.03;;;8.88;;
23282;SDS011;11810;51.178;3.878;2022-12-24T09:08:32;42.65;;;7.75;;
23282;SDS011;11810;51.178;3.878;2022-12-24T09:11:02;50.17;;;8.27;;
23282;SDS011;11810;51.178;3.878;2022-12-24T09:13:32;57.97;;;10.27;;
23282;SDS011;11810;51.178;3.878;2022-12-24T09:15:58;49.25;;;6.65;;
23282;SDS011;11810;51.178;3.878;2022-12-24T09:18:24;48.70;;;7.25;;
23282;SDS011;11810;51.178;3.878;2022-12-24T09:20:50;46.80;;;7.13;;
23282;SDS011;11810;51.178;3.878;2022-12-24T09:23:22;45.97;;;7.32;;
23282;SDS011;11810;51.178;3.878;2022-12-24T09:25:48;51.17;;;6.70;;
23282;SDS011;11810;51.178;3.878;2022-12-24T09:28:14;42.65;;;6.53;;
23282;SDS011;11810;51.178;3.878;2022-12-24T09:30:39;30.42;;;4.90;;
23282;SDS011;11810;51.178;3.878;2022-12-24T09:33:05;45.05;;;7.97;;
23282;SDS011;11810;51.178;3.878;2022-12-24T09:35:31;38.92;;;6.85;;
23282;SDS011;11810;51.178;3.878;2022-12-24T09:37:58;42.30;;;7.50;;
23282;SDS011;11810;51.178;3.878;2022-12-24T09:40:35;33.53;;;8.20;;
23282;SDS011;11810;51.178;3.878;2022-12-24T09:43:06;38.00;;;9.25;;
23282;SDS011;11810;51.178;3.878;2022-12-24T09:45:43;49.60;;;8.57;;
23282;SDS011;11810;51.178;3.878;2022-12-24T09:48:23;43.63;;;7.93;;
23282;SDS011;11810;51.178;3.878;2022-12-24T09:54:06;51.25;;;9.75;;
23282;SDS011;11810;51.178;3.878;2022-12-24T09:58:06;44.08;;;7.63;;
23282;SDS011;11810;51.178;3.878;2022-12-24T10:00:44;42.00;;;7.85;;
23282;SDS011;11810;51.178;3.878;2022-12-24T10:03:14;46.47;;;8.20;;
23282;SDS011;11810;51.178;3.878;2022-12-24T10:06:28;47.92;;;9.60;;
23282;SDS011;11810;51.178;3.878;2022-12-24T10:11:22;44.55;;;8.35;;
23282;SDS011;11810;51.178;3.878;2022-12-24T10:14:25;42.70;;;8.15;;
23282;SDS011;11810;51.178;3.878;2022-12-24T10:25:30;49.60;;;7.85;;
23282;SDS011;11810;51.178;3.878;2022-12-24T10:28:24;48.60;;;9.20;;
23282;SDS011;11810;51.178;3.878;2022-12-24T10:30:59;52.40;;;8.57;;
23282;SDS011;11810;51.178;3.878;2022-12-24T10:33:30;55.28;;;8.13;;
23282;SDS011;11810;51.178;3.878;2022-12-24T10:36:19;43.05;;;7.82;;
23282;SDS011;11810;51.178;3.878;2022-12-24T10:38:51;48.58;;;6.90;;
23282;SDS011;11810;51.178;3.878;2022-12-24T10:41:17;48.88;;;9.27;;
23282;SDS011;11810;51.178;3.878;2022-12-24T10:43:43;36.83;;;6.93;;
23282;SDS011;11810;51.178;3.878;2022-12-24T10:49:00;46.97;;;8.52;;
23282;SDS011;11810;51.178;3.878;2022-12-24T10:51:32;55.30;;;8.05;;
23282;SDS011;11810;51.178;3.878;2022-12-24T10:54:05;43.23;;;6.20;;
23282;SDS011;11810;51.178;3.878;2022-12-24T10:56:41;46.35;;;8.68;;
23282;SDS011;11810;51.178;3.878;2022-12-24T11:02:08;37.38;;;6.60;;
23282;SDS011;11810;51.178;3.878;2022-12-24T11:04:51;46.40;;;7.93;;
23282;SDS011;11810;51.178;3.878;2022-12-24T11:07:18;48.13;;;8.65;;
23282;SDS011;11810;51.178;3.878;2022-12-24T11:09:53;39.58;;;8.38;;
23282;SDS011;11810;51.178;3.878;2022-12-24T11:12:27;45.03;;;7.80;;
23282;SDS011;11810;51.178;3.878;2022-12-24T11:15:03;45.28;;;8.80;;
23282;SDS011;11810;51.178;3.878;2022-12-24T11:17:31;45.42;;;8.30;;
23282;SDS011;11810;51.178;3.878;2022-12-24T11:19:58;42.10;;;8.05;;
23282;SDS011;11810;51.178;3.878;2022-12-24T11:22:26;50.47;;;9.55;;
23282;SDS011;11810;51.178;3.878;2022-12-24T11:25:03;39.08;;;8.82;;
23282;SDS011;11810;51.178;3.878;2022-12-24T11:32:40;42.95;;;8.32;;
23282;SDS011;11810;51.178;3.878;2022-12-24T11:35:07;41.20;;;8.95;;
23282;SDS011;11810;51.178;3.878;2022-12-24T11:37:40;47.05;;;9.13;;
23282;SDS011;11810;51.178;3.878;2022-12-24T11:40:16;44.33;;;8.38;;
23282;SDS011;11810;51.178;3.878;2022-12-24T11:42:48;39.88;;;8.98;;
23282;SDS011;11810;51.178;3.878;2022-12-24T11:45:24;41.30;;;9.98;;
23282;SDS011;11810;51.178;3.878;2022-12-24T11:47:55;49.00;;;9.02;;
23282;SDS011;11810;51.178;3.878;2022-12-24T11:50:29;42.50;;;8.85;;
23282;SDS011;11810;51.178;3.878;2022-12-24T11:53:15;42.88;;;8.65;;
23282;SDS011;11810;51.178;3.878;2022-12-24T11:55:52;49.88;;;9.05;;
23282;SDS011;11810;51.178;3.878;2022-12-24T11:58:29;41.30;;;7.68;;
23282;SDS011;11810;51.178;3.878;2022-12-24T12:03:51;54.00;;;17.52;;
23282;SDS011;11810;51.178;3.878;2022-12-24T12:06:31;43.83;;;9.10;;
23282;SDS011;11810;51.178;3.878;2022-12-24T12:09:11;45.17;;;8.18;;
23282;SDS011;11810;51.178;3.878;2022-12-24T12:11:43;43.47;;;9.43;;
23282;SDS011;11810;51.178;3.878;2022-12-24T12:14:30;50.03;;;8.73;;
23282;SDS011;11810;51.178;3.878;2022-12-24T12:17:15;37.90;;;8.30;;
23282;SDS011;11810;51.178;3.878;2022-12-24T12:20:12;38.97;;;9.05;;
23282;SDS011;11810;51.178;3.878;2022-12-24T12:26:05;42.13;;;8.27;;
23282;SDS011;11810;51.178;3.878;2022-12-24T12:28:27;41.88;;;8.63;;
23282;SDS011;11810;51.178;3.878;2022-12-24T12:34:15;39.67;;;8.30;;
23282;SDS011;11810;51.178;3.878;2022-12-24T12:36:50;33.67;;;7.85;;
23282;SDS011;11810;51.178;3.878;2022-12-24T12:39:33;38.58;;;8.02;;
23282;SDS011;11810;51.178;3.878;2022-12-24T12:44:54;41.97;;;8.85;;
23282;SDS011;11810;51.178;3.878;2022-12-24T12:50:32;42.65;;;8.98;;
23282;SDS011;11810;51.178;3.878;2022-12-24T12:59:01;44.90;;;9.80;;
23282;SDS011;11810;51.178;3.878;2022-12-24T13:09:51;47.35;;;9.30;;
23282;SDS011;11810;51.178;3.878;2022-12-24T13:19:06;36.92;;;8.90;;
23282;SDS011;11810;51.178;3.878;2022-12-24T13:21:19;40.50;;;9.00;;
23282;SDS011;11810;51.178;3.878;2022-12-24T13:23:50;35.30;;;7.45;;
23282;SDS011;11810;51.178;3.878;2022-12-24T13:29:38;38.45;;;7.53;;
23282;SDS011;11810;51.178;3.878;2022-12-24T13:37:19;51.67;;;9.63;;
23282;SDS011;11810;51.178;3.878;2022-12-24T13:40:05;36.40;;;8.75;;
23282;SDS011;11810;51.178;3.878;2022-12-24T13:48:02;44.28;;;8.82;;
23282;SDS011;11810;51.178;3.878;2022-12-24T13:50:47;45.50;;;9.45;;
23282;SDS011;11810;51.178;3.878;2022-12-24T13:53:20;38.58;;;8.20;;
23282;SDS011;11810;51.178;3.878;2022-12-24T13:55:51;42.25;;;8.32;;
23282;SDS011;11810;51.178;3.878;2022-12-24T13:58:23;42.88;;;8.98;;
23282;SDS011;11810;51.178;3.878;2022-12-24T14:00:53;36.58;;;7.57;;
23282;SDS011;11810;51.178;3.878;2022-12-24T14:06:07;41.75;;;9.48;;
23282;SDS011;11810;51.178;3.878;2022-12-24T14:09:06;42.95;;;8.80;;
23282;SDS011;11810;51.178;3.878;2022-12-24T14:14:33;33.80;;;8.50;;
23282;SDS011;11810;51.178;3.878;2022-12-24T14:17:02;49.65;;;10.00;;
23282;SDS011;11810;51.178;3.878;2022-12-24T14:19:42;42.60;;;9.23;;
23282;SDS011;11810;51.178;3.878;2022-12-24T14:25:16;53.20;;;8.90;;
23282;SDS011;11810;51.178;3.878;2022-12-24T14:27:46;42.15;;;9.40;;
23282;SDS011;11810;51.178;3.878;2022-12-24T14:30:21;38.92;;;10.10;;
23282;SDS011;11810;51.178;3.878;2022-12-24T14:32:50;37.08;;;9.07;;
23282;SDS011;11810;51.178;3.878;2022-12-24T14:35:18;48.65;;;9.07;;
23282;SDS011;11810;51.178;3.878;2022-12-24T14:37:51;50.83;;;8.73;;
23282;SDS011;11810;51.178;3.878;2022-12-24T14:40:27;46.70;;;9.73;;
23282;SDS011;11810;51.178;3.878;2022-12-24T14:48:26;38.47;;;8.48;;
23282;SDS011;11810;51.178;3.878;2022-12-24T14:54:03;43.35;;;9.18;;
23282;SDS011;11810;51.178;3.878;2022-12-24T15:05:17;38.55;;;8.52;;
23282;SDS011;11810;51.178;3.878;2022-12-24T15:07:56;41.75;;;8.40;;
23282;SDS011;11810;51.178;3.878;2022-12-24T15:13:20;41.70;;;10.38;;
23282;SDS011;11810;51.178;3.878;2022-12-24T15:16:07;48.70;;;11.63;;
23282;SDS011;11810;51.178;3.878;2022-12-24T15:18:37;51.10;;;11.32;;
23282;SDS011;11810;51.178;3.878;2022-12-24T15:21:12;44.60;;;11.75;;
23282;SDS011;11810;51.178;3.878;2022-12-24T15:23:46;40.08;;;9.88;;
23282;SDS011;11810;51.178;3.878;2022-12-24T15:26:19;53.08;;;11.77;;
23282;SDS011;11810;51.178;3.878;2022-12-24T15:28:48;43.13;;;10.07;;
23282;SDS011;11810;51.178;3.878;2022-12-24T15:31:16;38.63;;;10.65;;
23282;SDS011;11810;51.178;3.878;2022-12-24T15:33:49;60.95;;;12.10;;
23282;SDS011;11810;51.178;3.878;2022-12-24T15:36:23;52.97;;;11.20;;
23282;SDS011;11810;51.178;3.878;2022-12-24T15:38:50;45.60;;;11.70;;
23282;SDS011;11810;51.178;3.878;2022-12-24T15:41:19;54.47;;;13.20;;
23282;SDS011;11810;51.178;3.878;2022-12-24T15:43:50;47.13;;;11.02;;
23282;SDS011;11810;51.178;3.878;2022-12-24T15:46:21;44.25;;;10.40;;
23282;SDS011;11810;51.178;3.878;2022-12-24T15:48:49;46.35;;;13.27;;
23282;SDS011;11810;51.178;3.878;2022-12-24T15:51:26;53.05;;;11.70;;
23282;SDS011;11810;51.178;3.878;2022-12-24T15:54:05;40.63;;;11.10;;
23282;SDS011;11810;51.178;3.878;2022-12-24T15:56:41;45.33;;;10.98;;
23282;SDS011;11810;51.178;3.878;2022-12-24T16:01:37;62.70;;;13.65;;
23282;SDS011;11810;51.178;3.878;2022-12-24T16:04:11;57.05;;;13.70;;
23282;SDS011;11810;51.178;3.878;2022-12-24T16:06:56;45.40;;;12.07;;
23282;SDS011;11810;51.178;3.878;2022-12-24T16:12:01;41.83;;;11.52;;
23282;SDS011;11810;51.178;3.878;2022-12-24T16:14:28;46.58;;;12.35;;
23282;SDS011;11810;51.178;3.878;2022-12-24T16:16:55;40.22;;;11.35;;
23282;SDS011;11810;51.178;3.878;2022-12-24T16:21:51;45.67;;;11.10;;
23282;SDS011;11810;51.178;3.878;2022-12-24T16:24:20;40.75;;;10.75;;
23282;SDS011;11810;51.178;3.878;2022-12-24T16:26:46;39.83;;;10.27;;
23282;SDS011;11810;51.178;3.878;2022-12-24T16:29:13;37.50;;;11.27;;
23282;SDS011;11810;51.178;3.878;2022-12-24T16:31:47;47.33;;;11.07;;
23282;SDS011;11810;51.178;3.878;2022-12-24T16:34:15;53.22;;;13.85;;
23282;SDS011;11810;51.178;3.878;2022-12-24T16:36:43;50.78;;;13.15;;
23282;SDS011;11810;51.178;3.878;2022-12-24T16:39:13;60.92;;;23.17;;
23282;SDS011;11810;51.178;3.878;2022-12-24T16:41:52;88.70;;;37.30;;
23282;SDS011;11810;51.178;3.878;2022-12-24T16:44:39;74.22;;;27.67;;
23282;SDS011;11810;51.178;3.878;2022-12-24T16:47:05;69.47;;;21.08;;
23282;SDS011;11810;51.178;3.878;2022-12-24T16:49:37;53.47;;;17.65;;
23282;SDS011;11810;51.178;3.878;2022-12-24T16:52:06;62.10;;;16.05;;
23282;SDS011;11810;51.178;3.878;2022-12-24T16:54:40;47.78;;;15.75;;
23282;SDS011;11810;51.178;3.878;2022-12-24T16:57:07;72.13;;;22.73;;
23282;SDS011;11810;51.178;3.878;2022-12-24T16:59:35;80.45;;;29.48;;
23282;SDS011;11810;51.178;3.878;2022-12-24T17:02:01;59.70;;;22.60;;
23282;SDS011;11810;51.178;3.878;2022-12-24T17:04:30;55.72;;;18.92;;
23282;SDS011;11810;51.178;3.878;2022-12-24T17:06:56;62.30;;;20.83;;
23282;SDS011;11810;51.178;3.878;2022-12-24T17:09:22;45.28;;;17.42;;
23282;SDS011;11810;51.178;3.878;2022-12-24T17:11:48;48.47;;;16.35;;